Strawtown, Indiana
Current Conditions -  °F | °C
As of 11:15 PM on Wednesday 28 Jan 2015 (Local Time) from KMQJ Reporting Station
Clear Clear  
Wind Chill: 20°   Ceiling: Unl
Heat Index: 32°   Visibility: 10mi
Dew Point: 14°   Wind: 18mph
Humidity: 47%   Direction: 160°SSE
Pressure: 30.04"   Gusts: 22mph
Location:  40.0533°N, 85.9252°W
Report Text: KMQJ 290415Z AUTO 16016G19KT 10SM CLR 00/M10 A3004 RMK AO1
Loading
Personal Weather Stations






























Interactive Weather Map New forecast layout! Learn more

10-Day Weather Forecast

Advertisements
Track Severe Weather on mobile